Flight Track Log - Related Links

Times and Time Zones

All times are in EDT time to prevent confusion due to time zone crossing. See the KAP927 flight status page for this flight to view local times or setup timezone preferences in your user account.

Time Position Orientation Groundspeed Altitude Reporting Facility
EDT Latitude Longitude Course Direction KTS MPH feet Rate Location/Type
Thu 02:30:37 PM 42.7922 -73.8153 326° Northwest 117 135 1,500  Level Boston Center
Thu 02:31:38 PM 42.8211 -73.8414 326° Northwest 117 135 2,000 469 Climbing Boston Center
Thu 02:32:45 PM 42.8519 -73.8675 328° Northwest 120 138 2,500 516 Climbing Boston Center
Thu 02:33:46 PM 42.8808 -73.8881 332° Northwest 118 136 3,100 621 Climbing Boston Center
Thu 02:34:41 PM 42.9058 -73.9083 329° Northwest 118 136 3,700 517 Climbing Boston Center
Thu 02:35:42 PM 42.9344 -73.9375 323° Northwest 125 144 4,100 347 Climbing Boston Center
Thu 02:36:42 PM 42.9656 -73.9636 328° Northwest 133 153 4,400 209 Climbing Boston Center
Thu 02:37:37 PM 42.9986 -73.9844 335° Northwest 158 182 4,500 224 Climbing Boston Center
Thu 02:38:56 PM 43.0500 -74.0283 328° Northwest 163 188 4,900 378 Climbing Boston Center
Thu 02:39:44 PM 43.0789 -74.0547 326° Northwest 151 174 5,300 542 Climbing Boston Center
Thu 02:41:20 PM 43.1322 -74.0989 329° Northwest 148 170 6,200 462 Climbing Boston Center
Thu 02:42:20 PM 43.1633 -74.1253 328° Northwest 142 163 6,500 200 Climbing Boston Center
Thu 02:43:20 PM 43.2044 -74.1606 328° Northwest 148 170 6,600  Climbing Boston Center
Thu 02:44:20 PM 43.2372 -74.1928 324° Northwest 156 180 6,500 -50 Descending Boston Center
Thu 02:45:20 PM 43.2783 -74.2283 328° Northwest 156 180 6,500 50 Level Boston Center
Thu 02:46:20 PM 43.3114 -74.2578 327° Northwest 156 180 6,600  Climbing Boston Center
Thu 02:47:20 PM 43.3442 -74.2844 329° Northwest 156 180 6,500 -50 Descending Boston Center
Thu 02:48:20 PM 43.3853 -74.3200 328° Northwest 156 180 6,500  Level Boston Center
Thu 02:49:20 PM 43.4264 -74.3583 326° Northwest 156 180 6,500 100 Level Boston Center
Thu 02:50:20 PM 43.4633 -74.3881 330° Northwest 156 180 6,700  Climbing Boston Center
Thu 02:51:20 PM 43.5022 -74.4239 326° Northwest 161 185 6,500 -50 Descending Boston Center
Thu 02:52:20 PM 43.5394 -74.4536 330° Northwest 161 185 6,600  Climbing Boston Center
Thu 02:53:20 PM 43.5783 -74.4892 326° Northwest 166 191 6,500 -50 Descending Boston Center
Thu 02:54:20 PM 43.6133 -74.5164 331° Northwest 160 184 6,500  Level Boston Center
Thu 02:55:20 PM 43.6481 -74.5461 328° Northwest 160 184 6,500  Level Boston Center
Thu 02:56:20 PM 43.6831 -74.5761 328° Northwest 154 177 6,500 50 Level Boston Center
Thu 02:57:20 PM 43.7200 -74.6061 330° Northwest 154 177 6,600  Climbing Boston Center
Thu 02:58:20 PM 43.7569 -74.6392 327° Northwest 154 177 6,500 -50 Descending Boston Center
Thu 02:59:20 PM 43.7939 -74.6692 330° Northwest 154 177 6,500  Level Boston Center
Thu 03:00:20 PM 43.8306 -74.6994 329° Northwest 154 177 6,500 50 Level Boston Center
Thu 03:01:20 PM 43.8675 -74.7325 327° Northwest 154 177 6,600  Climbing Boston Center
Thu 03:02:20 PM 43.9064 -74.7686 326° Northwest 154 177 6,500 -50 Descending Boston Center
Thu 03:03:20 PM 43.9433 -74.8017 327° Northwest 154 177 6,500  Level Boston Center
Thu 03:04:20 PM 43.9822 -74.8350 328° Northwest 154 177 6,500  Level Boston Center
Thu 03:05:20 PM 44.0192 -74.8653 329° Northwest 159 183 6,500  Level Boston Center
Thu 03:06:20 PM 44.0581 -74.8986 328° Northwest 164 189 6,500  Level Boston Center
Thu 03:07:20 PM 44.0947 -74.9319 327° Northwest 164 189 6,500 50 Level Boston Center
Thu 03:08:20 PM 44.1314 -74.9653 327° Northwest 164 189 6,600 50 Climbing Boston Center
Thu 03:09:20 PM 44.1703 -75.0017 326° Northwest 164 189 6,600 -200 Level Boston Center
Thu 03:10:20 PM 44.2133 -75.0383 329° Northwest 164 189 6,200 -400 Descending Boston Center
Thu 03:11:20 PM 44.2564 -75.0692 333° Northwest 169 194 5,800 -550 Descending Boston Center
Thu 03:12:20 PM 44.2992 -75.1089 326° Northwest 169 194 5,100 -600 Descending Boston Center
Thu 03:13:20 PM 44.3381 -75.1425 328° Northwest 169 194 4,600 -450 Descending Boston Center
Thu 03:14:20 PM 44.3831 -75.1764 332° Northwest 169 194 4,200 -300 Descending Boston Center
Thu 03:15:20 PM 44.4197 -75.2103 327° Northwest 169 194 4,000 -300 Descending Boston Center
Thu 03:16:20 PM 44.4586 -75.2439 328° Northwest 169 194 3,600 -400 Descending Boston Center
Thu 03:17:20 PM 44.5014 -75.2781 330° Northwest 164 189 3,200 -300 Descending Boston Center
Thu 03:18:20 PM 44.5442 -75.3208 325° Northwest 164 189 3,000 -200 Descending Boston Center

Login

Don't have an account? Register now (free) for customized features, flight alerts, and more!